sensor_id;sensor_type;location;lat;lon;timestamp;P1;durP1;ratioP1;P2;durP2;ratioP2
15673;SDS011;7937;48.090;16.212;2023-05-10T00:00:49;3.00;;;2.20;;
15673;SDS011;7937;48.090;16.212;2023-05-10T00:03:51;4.97;;;2.90;;
15673;SDS011;7937;48.090;16.212;2023-05-10T00:06:54;3.30;;;3.00;;
15673;SDS011;7937;48.090;16.212;2023-05-10T00:09:56;4.20;;;3.03;;
15673;SDS011;7937;48.090;16.212;2023-05-10T00:12:59;3.63;;;2.50;;
15673;SDS011;7937;48.090;16.212;2023-05-10T00:16:01;3.43;;;2.83;;
15673;SDS011;7937;48.090;16.212;2023-05-10T00:19:03;3.10;;;2.40;;
15673;SDS011;7937;48.090;16.212;2023-05-10T00:22:05;2.53;;;2.33;;
15673;SDS011;7937;48.090;16.212;2023-05-10T00:25:08;6.23;;;3.00;;
15673;SDS011;7937;48.090;16.212;2023-05-10T00:28:11;5.03;;;2.87;;
15673;SDS011;7937;48.090;16.212;2023-05-10T00:31:14;3.30;;;2.63;;
15673;SDS011;7937;48.090;16.212;2023-05-10T00:34:16;3.40;;;2.70;;
15673;SDS011;7937;48.090;16.212;2023-05-10T00:37:19;2.93;;;2.67;;
15673;SDS011;7937;48.090;16.212;2023-05-10T00:40:21;3.13;;;2.77;;
15673;SDS011;7937;48.090;16.212;2023-05-10T00:43:28;4.70;;;3.37;;
15673;SDS011;7937;48.090;16.212;2023-05-10T00:46:30;3.40;;;3.10;;
15673;SDS011;7937;48.090;16.212;2023-05-10T00:49:33;4.23;;;2.77;;
15673;SDS011;7937;48.090;16.212;2023-05-10T00:52:37;5.07;;;2.90;;
15673;SDS011;7937;48.090;16.212;2023-05-10T00:55:39;3.90;;;2.73;;
15673;SDS011;7937;48.090;16.212;2023-05-10T00:58:42;3.30;;;3.00;;
15673;SDS011;7937;48.090;16.212;2023-05-10T01:01:45;4.47;;;3.30;;
15673;SDS011;7937;48.090;16.212;2023-05-10T01:04:48;4.20;;;2.77;;
15673;SDS011;7937;48.090;16.212;2023-05-10T01:07:51;7.47;;;3.30;;
15673;SDS011;7937;48.090;16.212;2023-05-10T01:10:54;4.17;;;2.60;;
15673;SDS011;7937;48.090;16.212;2023-05-10T01:13:56;3.43;;;2.87;;
15673;SDS011;7937;48.090;16.212;2023-05-10T01:17:00;5.20;;;3.17;;
15673;SDS011;7937;48.090;16.212;2023-05-10T01:20:03;5.47;;;3.03;;
15673;SDS011;7937;48.090;16.212;2023-05-10T01:26:39;4.30;;;2.90;;
15673;SDS011;7937;48.090;16.212;2023-05-10T01:36:54;3.10;;;2.80;;
15673;SDS011;7937;48.090;16.212;2023-05-10T01:43:16;3.43;;;3.10;;
15673;SDS011;7937;48.090;16.212;2023-05-10T01:46:36;3.47;;;2.93;;
15673;SDS011;7937;48.090;16.212;2023-05-10T01:49:41;3.13;;;2.40;;
15673;SDS011;7937;48.090;16.212;2023-05-10T01:52:53;2.93;;;2.57;;
15673;SDS011;7937;48.090;16.212;2023-05-10T01:55:58;3.53;;;3.17;;
15673;SDS011;7937;48.090;16.212;2023-05-10T01:59:04;4.00;;;2.90;;
15673;SDS011;7937;48.090;16.212;2023-05-10T02:02:08;2.73;;;2.53;;
15673;SDS011;7937;48.090;16.212;2023-05-10T02:05:14;3.87;;;2.63;;
15673;SDS011;7937;48.090;16.212;2023-05-10T02:08:17;2.63;;;2.37;;
15673;SDS011;7937;48.090;16.212;2023-05-10T02:11:22;3.63;;;2.67;;
15673;SDS011;7937;48.090;16.212;2023-05-10T02:14:26;3.27;;;2.87;;
15673;SDS011;7937;48.090;16.212;2023-05-10T02:17:30;5.87;;;3.00;;
15673;SDS011;7937;48.090;16.212;2023-05-10T02:20:34;3.03;;;2.73;;
15673;SDS011;7937;48.090;16.212;2023-05-10T02:23:36;2.90;;;2.60;;
15673;SDS011;7937;48.090;16.212;2023-05-10T02:26:39;3.53;;;2.83;;
15673;SDS011;7937;48.090;16.212;2023-05-10T02:29:44;6.03;;;3.27;;
15673;SDS011;7937;48.090;16.212;2023-05-10T02:32:49;3.73;;;2.93;;
15673;SDS011;7937;48.090;16.212;2023-05-10T02:35:53;5.23;;;3.20;;
15673;SDS011;7937;48.090;16.212;2023-05-10T02:38:56;5.83;;;3.03;;
15673;SDS011;7937;48.090;16.212;2023-05-10T02:42:00;3.10;;;2.80;;
15673;SDS011;7937;48.090;16.212;2023-05-10T02:45:05;3.23;;;2.93;;
15673;SDS011;7937;48.090;16.212;2023-05-10T02:48:17;3.20;;;2.90;;
15673;SDS011;7937;48.090;16.212;2023-05-10T02:51:19;3.50;;;2.90;;
15673;SDS011;7937;48.090;16.212;2023-05-10T02:54:30;2.80;;;2.50;;
15673;SDS011;7937;48.090;16.212;2023-05-10T02:57:35;3.40;;;3.00;;
15673;SDS011;7937;48.090;16.212;2023-05-10T03:00:45;5.43;;;3.30;;
15673;SDS011;7937;48.090;16.212;2023-05-10T03:03:48;3.20;;;2.87;;
15673;SDS011;7937;48.090;16.212;2023-05-10T03:06:50;3.57;;;2.90;;
15673;SDS011;7937;48.090;16.212;2023-05-10T03:09:53;3.60;;;3.10;;
15673;SDS011;7937;48.090;16.212;2023-05-10T03:12:59;3.90;;;3.10;;
15673;SDS011;7937;48.090;16.212;2023-05-10T03:16:28;5.50;;;3.30;;
15673;SDS011;7937;48.090;16.212;2023-05-10T03:22:50;6.17;;;3.77;;
15673;SDS011;7937;48.090;16.212;2023-05-10T03:25:58;3.27;;;2.97;;
15673;SDS011;7937;48.090;16.212;2023-05-10T03:29:04;4.47;;;3.50;;
15673;SDS011;7937;48.090;16.212;2023-05-10T03:32:08;2.80;;;2.50;;
15673;SDS011;7937;48.090;16.212;2023-05-10T03:35:11;5.03;;;3.30;;
15673;SDS011;7937;48.090;16.212;2023-05-10T03:38:18;3.37;;;2.90;;
15673;SDS011;7937;48.090;16.212;2023-05-10T03:41:20;5.10;;;3.10;;
15673;SDS011;7937;48.090;16.212;2023-05-10T03:44:23;3.20;;;2.73;;
15673;SDS011;7937;48.090;16.212;2023-05-10T03:47:26;3.57;;;3.10;;
15673;SDS011;7937;48.090;16.212;2023-05-10T03:50:28;3.47;;;3.10;;
15673;SDS011;7937;48.090;16.212;2023-05-10T03:53:31;7.00;;;3.30;;
15673;SDS011;7937;48.090;16.212;2023-05-10T03:56:34;4.67;;;3.00;;
15673;SDS011;7937;48.090;16.212;2023-05-10T03:59:36;3.63;;;3.13;;
15673;SDS011;7937;48.090;16.212;2023-05-10T04:02:38;4.83;;;2.83;;
15673;SDS011;7937;48.090;16.212;2023-05-10T04:05:45;3.67;;;2.87;;
15673;SDS011;7937;48.090;16.212;2023-05-10T04:08:47;3.43;;;3.13;;
15673;SDS011;7937;48.090;16.212;2023-05-10T04:11:49;4.60;;;3.03;;
15673;SDS011;7937;48.090;16.212;2023-05-10T04:14:51;4.20;;;2.90;;
15673;SDS011;7937;48.090;16.212;2023-05-10T04:17:53;4.87;;;2.80;;
15673;SDS011;7937;48.090;16.212;2023-05-10T04:20:55;3.23;;;2.70;;
15673;SDS011;7937;48.090;16.212;2023-05-10T04:23:58;3.53;;;2.90;;
15673;SDS011;7937;48.090;16.212;2023-05-10T04:27:00;3.30;;;2.80;;
15673;SDS011;7937;48.090;16.212;2023-05-10T04:30:03;3.33;;;2.50;;
15673;SDS011;7937;48.090;16.212;2023-05-10T04:33:05;3.43;;;2.93;;
15673;SDS011;7937;48.090;16.212;2023-05-10T04:36:07;4.60;;;3.03;;
15673;SDS011;7937;48.090;16.212;2023-05-10T04:39:10;4.47;;;3.20;;
15673;SDS011;7937;48.090;16.212;2023-05-10T04:42:12;6.20;;;2.80;;
15673;SDS011;7937;48.090;16.212;2023-05-10T04:45:16;4.83;;;3.03;;
15673;SDS011;7937;48.090;16.212;2023-05-10T04:48:18;2.93;;;2.60;;
15673;SDS011;7937;48.090;16.212;2023-05-10T04:51:20;4.03;;;2.90;;
15673;SDS011;7937;48.090;16.212;2023-05-10T04:54:23;4.30;;;2.80;;
15673;SDS011;7937;48.090;16.212;2023-05-10T04:57:25;3.77;;;3.20;;
15673;SDS011;7937;48.090;16.212;2023-05-10T05:00:27;3.70;;;3.33;;
15673;SDS011;7937;48.090;16.212;2023-05-10T05:03:30;4.33;;;2.83;;
15673;SDS011;7937;48.090;16.212;2023-05-10T05:06:32;3.80;;;3.23;;
15673;SDS011;7937;48.090;16.212;2023-05-10T05:09:34;3.83;;;3.13;;
15673;SDS011;7937;48.090;16.212;2023-05-10T05:12:37;3.20;;;2.90;;
15673;SDS011;7937;48.090;16.212;2023-05-10T05:15:39;4.17;;;3.70;;
15673;SDS011;7937;48.090;16.212;2023-05-10T05:18:41;4.07;;;3.03;;
15673;SDS011;7937;48.090;16.212;2023-05-10T05:21:44;4.60;;;3.30;;
15673;SDS011;7937;48.090;16.212;2023-05-10T05:24:47;4.10;;;3.33;;
15673;SDS011;7937;48.090;16.212;2023-05-10T05:27:49;4.27;;;3.37;;
15673;SDS011;7937;48.090;16.212;2023-05-10T05:30:51;3.87;;;3.43;;
15673;SDS011;7937;48.090;16.212;2023-05-10T05:33:54;4.77;;;3.37;;
15673;SDS011;7937;48.090;16.212;2023-05-10T05:36:57;5.27;;;4.00;;
15673;SDS011;7937;48.090;16.212;2023-05-10T05:40:00;3.53;;;3.23;;
15673;SDS011;7937;48.090;16.212;2023-05-10T05:43:03;5.07;;;3.50;;
15673;SDS011;7937;48.090;16.212;2023-05-10T05:46:06;3.60;;;3.20;;
15673;SDS011;7937;48.090;16.212;2023-05-10T05:49:08;4.00;;;3.13;;
15673;SDS011;7937;48.090;16.212;2023-05-10T05:52:10;5.07;;;3.27;;
15673;SDS011;7937;48.090;16.212;2023-05-10T05:55:13;4.10;;;3.10;;
15673;SDS011;7937;48.090;16.212;2023-05-10T05:58:16;4.20;;;3.70;;
15673;SDS011;7937;48.090;16.212;2023-05-10T06:01:18;7.27;;;3.40;;
15673;SDS011;7937;48.090;16.212;2023-05-10T06:04:20;8.33;;;3.77;;
15673;SDS011;7937;48.090;16.212;2023-05-10T06:07:23;3.83;;;3.30;;
15673;SDS011;7937;48.090;16.212;2023-05-10T06:10:25;5.37;;;3.83;;
15673;SDS011;7937;48.090;16.212;2023-05-10T06:13:28;5.67;;;3.70;;
15673;SDS011;7937;48.090;16.212;2023-05-10T06:16:34;4.17;;;3.10;;
15673;SDS011;7937;48.090;16.212;2023-05-10T06:19:37;4.43;;;3.00;;
15673;SDS011;7937;48.090;16.212;2023-05-10T06:22:39;6.03;;;3.13;;
15673;SDS011;7937;48.090;16.212;2023-05-10T06:25:41;3.20;;;2.80;;
15673;SDS011;7937;48.090;16.212;2023-05-10T06:28:43;4.80;;;2.93;;
15673;SDS011;7937;48.090;16.212;2023-05-10T06:31:46;3.60;;;3.03;;
15673;SDS011;7937;48.090;16.212;2023-05-10T06:34:50;5.67;;;2.93;;
15673;SDS011;7937;48.090;16.212;2023-05-10T06:37:52;5.13;;;2.97;;
15673;SDS011;7937;48.090;16.212;2023-05-10T06:40:54;3.23;;;2.90;;
15673;SDS011;7937;48.090;16.212;2023-05-10T06:43:57;3.40;;;2.43;;
15673;SDS011;7937;48.090;16.212;2023-05-10T06:46:59;3.13;;;2.53;;
15673;SDS011;7937;48.090;16.212;2023-05-10T06:50:02;3.57;;;2.40;;
15673;SDS011;7937;48.090;16.212;2023-05-10T06:53:05;3.77;;;2.17;;
15673;SDS011;7937;48.090;16.212;2023-05-10T06:56:07;3.47;;;2.40;;
15673;SDS011;7937;48.090;16.212;2023-05-10T06:59:09;2.53;;;2.33;;
15673;SDS011;7937;48.090;16.212;2023-05-10T07:02:12;4.77;;;2.30;;
15673;SDS011;7937;48.090;16.212;2023-05-10T07:05:17;3.37;;;2.33;;
15673;SDS011;7937;48.090;16.212;2023-05-10T07:08:22;3.63;;;2.20;;
15673;SDS011;7937;48.090;16.212;2023-05-10T07:11:24;4.40;;;2.43;;
15673;SDS011;7937;48.090;16.212;2023-05-10T07:14:27;3.23;;;2.30;;
15673;SDS011;7937;48.090;16.212;2023-05-10T07:17:30;8.87;;;2.90;;
15673;SDS011;7937;48.090;16.212;2023-05-10T07:20:32;4.97;;;2.43;;
15673;SDS011;7937;48.090;16.212;2023-05-10T07:23:35;3.47;;;2.70;;
15673;SDS011;7937;48.090;16.212;2023-05-10T07:26:37;6.13;;;2.43;;
15673;SDS011;7937;48.090;16.212;2023-05-10T07:29:40;2.33;;;2.10;;
15673;SDS011;7937;48.090;16.212;2023-05-10T07:32:42;4.30;;;2.23;;
15673;SDS011;7937;48.090;16.212;2023-05-10T07:35:45;2.77;;;2.00;;
15673;SDS011;7937;48.090;16.212;2023-05-10T07:38:47;2.53;;;1.77;;
15673;SDS011;7937;48.090;16.212;2023-05-10T07:41:51;3.53;;;1.87;;
15673;SDS011;7937;48.090;16.212;2023-05-10T07:44:53;2.30;;;1.63;;
15673;SDS011;7937;48.090;16.212;2023-05-10T07:47:56;1.70;;;1.57;;
15673;SDS011;7937;48.090;16.212;2023-05-10T07:50:59;4.30;;;1.60;;
15673;SDS011;7937;48.090;16.212;2023-05-10T07:54:03;2.03;;;1.50;;
15673;SDS011;7937;48.090;16.212;2023-05-10T07:57:05;4.33;;;1.53;;
15673;SDS011;7937;48.090;16.212;2023-05-10T08:00:08;2.20;;;1.60;;
15673;SDS011;7937;48.090;16.212;2023-05-10T08:03:14;3.80;;;1.90;;
15673;SDS011;7937;48.090;16.212;2023-05-10T08:06:17;1.97;;;1.77;;
15673;SDS011;7937;48.090;16.212;2023-05-10T08:09:20;1.43;;;1.30;;
15673;SDS011;7937;48.090;16.212;2023-05-10T08:12:25;4.77;;;2.30;;
15673;SDS011;7937;48.090;16.212;2023-05-10T08:15:28;5.23;;;2.47;;
15673;SDS011;7937;48.090;16.212;2023-05-10T08:18:30;3.37;;;2.50;;
15673;SDS011;7937;48.090;16.212;2023-05-10T08:21:33;2.40;;;2.20;;
15673;SDS011;7937;48.090;16.212;2023-05-10T08:24:36;3.37;;;2.40;;
15673;SDS011;7937;48.090;16.212;2023-05-10T08:27:39;4.03;;;2.17;;
15673;SDS011;7937;48.090;16.212;2023-05-10T08:30:43;5.57;;;2.03;;
15673;SDS011;7937;48.090;16.212;2023-05-10T08:33:45;4.50;;;2.90;;
15673;SDS011;7937;48.090;16.212;2023-05-10T08:36:48;3.53;;;2.30;;
15673;SDS011;7937;48.090;16.212;2023-05-10T08:39:50;4.00;;;2.10;;
15673;SDS011;7937;48.090;16.212;2023-05-10T08:42:55;6.03;;;2.90;;
15673;SDS011;7937;48.090;16.212;2023-05-10T08:46:04;3.07;;;2.20;;
15673;SDS011;7937;48.090;16.212;2023-05-10T08:49:07;5.53;;;3.13;;
15673;SDS011;7937;48.090;16.212;2023-05-10T08:52:10;5.30;;;3.10;;
15673;SDS011;7937;48.090;16.212;2023-05-10T08:55:15;6.40;;;2.97;;
15673;SDS011;7937;48.090;16.212;2023-05-10T08:58:19;4.60;;;2.80;;
15673;SDS011;7937;48.090;16.212;2023-05-10T09:01:22;4.83;;;3.00;;
15673;SDS011;7937;48.090;16.212;2023-05-10T09:04:26;4.27;;;2.63;;
15673;SDS011;7937;48.090;16.212;2023-05-10T09:07:30;3.57;;;2.50;;
15673;SDS011;7937;48.090;16.212;2023-05-10T09:10:35;4.73;;;2.60;;
15673;SDS011;7937;48.090;16.212;2023-05-10T09:13:40;3.43;;;2.53;;
15673;SDS011;7937;48.090;16.212;2023-05-10T09:16:44;3.00;;;2.70;;
15673;SDS011;7937;48.090;16.212;2023-05-10T09:19:46;4.00;;;2.90;;
15673;SDS011;7937;48.090;16.212;2023-05-10T09:22:49;3.33;;;2.80;;
15673;SDS011;7937;48.090;16.212;2023-05-10T09:26:04;8.47;;;2.83;;
15673;SDS011;7937;48.090;16.212;2023-05-10T09:29:07;3.97;;;2.47;;
15673;SDS011;7937;48.090;16.212;2023-05-10T09:32:10;5.07;;;2.57;;
15673;SDS011;7937;48.090;16.212;2023-05-10T09:35:15;3.63;;;2.87;;
15673;SDS011;7937;48.090;16.212;2023-05-10T09:38:19;5.90;;;3.03;;
15673;SDS011;7937;48.090;16.212;2023-05-10T09:41:22;2.40;;;2.20;;
15673;SDS011;7937;48.090;16.212;2023-05-10T09:44:25;3.17;;;2.87;;
15673;SDS011;7937;48.090;16.212;2023-05-10T09:47:29;2.47;;;2.27;;
15673;SDS011;7937;48.090;16.212;2023-05-10T09:50:34;4.80;;;2.77;;
15673;SDS011;7937;48.090;16.212;2023-05-10T09:53:36;3.10;;;2.50;;
15673;SDS011;7937;48.090;16.212;2023-05-10T09:56:39;4.90;;;2.17;;
15673;SDS011;7937;48.090;16.212;2023-05-10T09:59:42;2.90;;;2.57;;
15673;SDS011;7937;48.090;16.212;2023-05-10T10:02:45;4.40;;;2.33;;
15673;SDS011;7937;48.090;16.212;2023-05-10T10:05:56;3.23;;;1.90;;
15673;SDS011;7937;48.090;16.212;2023-05-10T10:09:02;3.57;;;1.90;;
15673;SDS011;7937;48.090;16.212;2023-05-10T10:12:05;2.83;;;2.13;;
15673;SDS011;7937;48.090;16.212;2023-05-10T10:15:09;1.83;;;1.60;;
15673;SDS011;7937;48.090;16.212;2023-05-10T10:18:15;2.13;;;1.60;;
15673;SDS011;7937;48.090;16.212;2023-05-10T10:21:18;3.27;;;1.37;;
15673;SDS011;7937;48.090;16.212;2023-05-10T10:24:21;1.67;;;1.30;;
15673;SDS011;7937;48.090;16.212;2023-05-10T10:30:45;3.37;;;1.40;;
15673;SDS011;7937;48.090;16.212;2023-05-10T10:34:00;4.90;;;1.40;;
15673;SDS011;7937;48.090;16.212;2023-05-10T10:37:09;2.90;;;1.80;;
15673;SDS011;7937;48.090;16.212;2023-05-10T10:40:24;1.37;;;1.20;;
15673;SDS011;7937;48.090;16.212;2023-05-10T10:43:35;1.93;;;1.00;;
15673;SDS011;7937;48.090;16.212;2023-05-10T10:50:11;2.97;;;1.00;;
15673;SDS011;7937;48.090;16.212;2023-05-10T10:53:18;1.90;;;1.33;;
15673;SDS011;7937;48.090;16.212;2023-05-10T10:56:21;1.60;;;1.20;;
15673;SDS011;7937;48.090;16.212;2023-05-10T10:59:28;1.43;;;1.23;;
15673;SDS011;7937;48.090;16.212;2023-05-10T11:02:43;1.33;;;1.23;;
15673;SDS011;7937;48.090;16.212;2023-05-10T11:05:48;1.60;;;1.40;;
15673;SDS011;7937;48.090;16.212;2023-05-10T11:08:51;1.70;;;1.07;;
15673;SDS011;7937;48.090;16.212;2023-05-10T11:11:54;1.83;;;1.50;;
15673;SDS011;7937;48.090;16.212;2023-05-10T11:14:57;1.20;;;1.10;;
15673;SDS011;7937;48.090;16.212;2023-05-10T11:18:01;2.57;;;1.30;;
15673;SDS011;7937;48.090;16.212;2023-05-10T11:21:19;2.07;;;1.30;;
15673;SDS011;7937;48.090;16.212;2023-05-10T11:24:25;2.07;;;1.50;;
15673;SDS011;7937;48.090;16.212;2023-05-10T11:27:29;1.73;;;1.50;;
15673;SDS011;7937;48.090;16.212;2023-05-10T11:30:32;2.47;;;1.27;;
15673;SDS011;7937;48.090;16.212;2023-05-10T11:33:44;1.97;;;1.47;;
15673;SDS011;7937;48.090;16.212;2023-05-10T11:36:51;5.47;;;1.37;;
15673;SDS011;7937;48.090;16.212;2023-05-10T11:39:55;1.77;;;1.23;;
15673;SDS011;7937;48.090;16.212;2023-05-10T11:42:57;1.97;;;1.40;;
15673;SDS011;7937;48.090;16.212;2023-05-10T11:46:00;4.33;;;1.50;;
15673;SDS011;7937;48.090;16.212;2023-05-10T11:49:04;3.23;;;1.20;;
15673;SDS011;7937;48.090;16.212;2023-05-10T11:52:09;2.87;;;1.30;;
15673;SDS011;7937;48.090;16.212;2023-05-10T11:55:13;5.17;;;1.53;;
15673;SDS011;7937;48.090;16.212;2023-05-10T11:58:15;1.90;;;1.27;;
15673;SDS011;7937;48.090;16.212;2023-05-10T12:01:17;1.40;;;1.30;;
15673;SDS011;7937;48.090;16.212;2023-05-10T12:04:20;2.53;;;1.47;;
15673;SDS011;7937;48.090;16.212;2023-05-10T12:07:23;1.50;;;1.30;;
15673;SDS011;7937;48.090;16.212;2023-05-10T12:10:26;2.00;;;1.50;;
15673;SDS011;7937;48.090;16.212;2023-05-10T12:13:29;3.27;;;1.20;;
15673;SDS011;7937;48.090;16.212;2023-05-10T12:16:32;2.20;;;1.30;;
15673;SDS011;7937;48.090;16.212;2023-05-10T12:19:38;1.67;;;1.27;;
15673;SDS011;7937;48.090;16.212;2023-05-10T12:22:45;1.40;;;0.90;;
15673;SDS011;7937;48.090;16.212;2023-05-10T12:25:48;1.50;;;1.40;;
15673;SDS011;7937;48.090;16.212;2023-05-10T12:28:50;4.03;;;1.20;;
15673;SDS011;7937;48.090;16.212;2023-05-10T12:32:10;2.00;;;1.10;;
15673;SDS011;7937;48.090;16.212;2023-05-10T12:35:13;5.67;;;1.33;;
15673;SDS011;7937;48.090;16.212;2023-05-10T12:38:28;1.40;;;1.30;;
15673;SDS011;7937;48.090;16.212;2023-05-10T12:41:34;1.30;;;1.20;;
15673;SDS011;7937;48.090;16.212;2023-05-10T12:44:36;2.00;;;1.10;;
15673;SDS011;7937;48.090;16.212;2023-05-10T12:47:39;1.53;;;1.10;;
15673;SDS011;7937;48.090;16.212;2023-05-10T12:50:45;4.53;;;1.17;;
15673;SDS011;7937;48.090;16.212;2023-05-10T12:53:48;2.77;;;1.17;;
15673;SDS011;7937;48.090;16.212;2023-05-10T12:56:50;1.87;;;1.20;;
15673;SDS011;7937;48.090;16.212;2023-05-10T12:59:52;2.93;;;1.10;;
15673;SDS011;7937;48.090;16.212;2023-05-10T13:02:56;1.57;;;1.00;;
15673;SDS011;7937;48.090;16.212;2023-05-10T13:05:58;2.17;;;1.30;;
15673;SDS011;7937;48.090;16.212;2023-05-10T13:09:00;1.70;;;1.20;;
15673;SDS011;7937;48.090;16.212;2023-05-10T13:12:03;2.53;;;0.90;;
15673;SDS011;7937;48.090;16.212;2023-05-10T13:15:08;2.67;;;1.20;;
15673;SDS011;7937;48.090;16.212;2023-05-10T13:18:10;2.23;;;1.40;;
15673;SDS011;7937;48.090;16.212;2023-05-10T13:21:13;1.23;;;1.13;;
15673;SDS011;7937;48.090;16.212;2023-05-10T13:24:15;1.77;;;1.13;;
15673;SDS011;7937;48.090;16.212;2023-05-10T13:27:18;3.47;;;1.27;;
15673;SDS011;7937;48.090;16.212;2023-05-10T13:30:21;1.00;;;1.00;;
15673;SDS011;7937;48.090;16.212;2023-05-10T13:33:24;2.80;;;1.30;;
15673;SDS011;7937;48.090;16.212;2023-05-10T13:36:26;1.40;;;1.07;;
15673;SDS011;7937;48.090;16.212;2023-05-10T13:39:29;1.63;;;1.23;;
15673;SDS011;7937;48.090;16.212;2023-05-10T13:42:35;1.70;;;0.93;;
15673;SDS011;7937;48.090;16.212;2023-05-10T13:45:39;1.83;;;0.80;;
15673;SDS011;7937;48.090;16.212;2023-05-10T13:48:41;2.80;;;1.00;;
15673;SDS011;7937;48.090;16.212;2023-05-10T13:51:43;1.20;;;1.10;;
15673;SDS011;7937;48.090;16.212;2023-05-10T13:54:46;2.27;;;1.30;;
15673;SDS011;7937;48.090;16.212;2023-05-10T13:57:48;1.40;;;1.30;;
15673;SDS011;7937;48.090;16.212;2023-05-10T14:00:50;1.47;;;1.00;;
15673;SDS011;7937;48.090;16.212;2023-05-10T14:03:53;4.87;;;1.33;;
15673;SDS011;7937;48.090;16.212;2023-05-10T14:06:55;1.47;;;1.17;;
15673;SDS011;7937;48.090;16.212;2023-05-10T14:09:59;2.63;;;1.20;;
15673;SDS011;7937;48.090;16.212;2023-05-10T14:13:02;2.10;;;1.40;;
15673;SDS011;7937;48.090;16.212;2023-05-10T14:16:04;5.77;;;1.73;;
15673;SDS011;7937;48.090;16.212;2023-05-10T14:19:07;1.10;;;1.00;;
15673;SDS011;7937;48.090;16.212;2023-05-10T14:22:11;1.90;;;1.33;;
15673;SDS011;7937;48.090;16.212;2023-05-10T14:25:14;1.40;;;1.30;;
15673;SDS011;7937;48.090;16.212;2023-05-10T14:28:16;1.50;;;1.20;;
15673;SDS011;7937;48.090;16.212;2023-05-10T14:31:20;1.57;;;1.17;;
15673;SDS011;7937;48.090;16.212;2023-05-10T14:34:22;1.63;;;1.27;;
15673;SDS011;7937;48.090;16.212;2023-05-10T14:37:25;1.20;;;1.10;;
15673;SDS011;7937;48.090;16.212;2023-05-10T14:40:28;1.37;;;1.00;;
15673;SDS011;7937;48.090;16.212;2023-05-10T14:43:30;2.57;;;1.03;;
15673;SDS011;7937;48.090;16.212;2023-05-10T14:46:33;1.40;;;1.23;;
15673;SDS011;7937;48.090;16.212;2023-05-10T14:49:38;2.10;;;1.20;;
15673;SDS011;7937;48.090;16.212;2023-05-10T14:52:41;2.27;;;1.10;;
15673;SDS011;7937;48.090;16.212;2023-05-10T14:55:43;1.30;;;1.10;;
15673;SDS011;7937;48.090;16.212;2023-05-10T14:58:46;2.80;;;1.30;;
15673;SDS011;7937;48.090;16.212;2023-05-10T15:01:50;1.73;;;1.37;;
15673;SDS011;7937;48.090;16.212;2023-05-10T15:04:53;1.60;;;1.40;;
15673;SDS011;7937;48.090;16.212;2023-05-10T15:07:57;1.40;;;1.30;;
15673;SDS011;7937;48.090;16.212;2023-05-10T15:11:00;1.10;;;1.00;;
15673;SDS011;7937;48.090;16.212;2023-05-10T15:14:02;1.53;;;1.20;;
15673;SDS011;7937;48.090;16.212;2023-05-10T15:17:05;1.20;;;1.10;;
15673;SDS011;7937;48.090;16.212;2023-05-10T15:20:09;3.20;;;1.20;;
15673;SDS011;7937;48.090;16.212;2023-05-10T15:23:11;2.60;;;1.40;;
15673;SDS011;7937;48.090;16.212;2023-05-10T15:26:14;2.73;;;1.30;;
15673;SDS011;7937;48.090;16.212;2023-05-10T15:29:16;2.00;;;1.00;;
15673;SDS011;7937;48.090;16.212;2023-05-10T15:32:21;1.63;;;1.20;;
15673;SDS011;7937;48.090;16.212;2023-05-10T15:35:23;1.83;;;1.30;;
15673;SDS011;7937;48.090;16.212;2023-05-10T15:38:27;2.37;;;1.33;;
15673;SDS011;7937;48.090;16.212;2023-05-10T15:41:30;1.10;;;1.00;;
15673;SDS011;7937;48.090;16.212;2023-05-10T15:44:36;2.20;;;1.10;;
15673;SDS011;7937;48.090;16.212;2023-05-10T15:47:40;2.43;;;1.10;;
15673;SDS011;7937;48.090;16.212;2023-05-10T15:50:42;2.83;;;1.40;;
15673;SDS011;7937;48.090;16.212;2023-05-10T15:53:44;1.47;;;1.10;;
15673;SDS011;7937;48.090;16.212;2023-05-10T15:57:06;1.90;;;1.20;;
15673;SDS011;7937;48.090;16.212;2023-05-10T16:00:09;2.13;;;0.90;;
15673;SDS011;7937;48.090;16.212;2023-05-10T16:03:12;2.63;;;1.20;;
15673;SDS011;7937;48.090;16.212;2023-05-10T16:06:15;1.30;;;1.20;;
15673;SDS011;7937;48.090;16.212;2023-05-10T16:09:18;2.67;;;1.13;;
15673;SDS011;7937;48.090;16.212;2023-05-10T16:12:20;1.83;;;1.30;;
15673;SDS011;7937;48.090;16.212;2023-05-10T16:15:23;1.00;;;0.90;;
15673;SDS011;7937;48.090;16.212;2023-05-10T16:18:25;1.43;;;1.03;;
15673;SDS011;7937;48.090;16.212;2023-05-10T16:21:31;1.23;;;1.13;;
15673;SDS011;7937;48.090;16.212;2023-05-10T16:24:36;2.00;;;1.00;;
15673;SDS011;7937;48.090;16.212;2023-05-10T16:27:39;1.47;;;1.10;;
15673;SDS011;7937;48.090;16.212;2023-05-10T16:30:41;1.10;;;1.10;;
15673;SDS011;7937;48.090;16.212;2023-05-10T16:33:43;1.97;;;1.30;;
15673;SDS011;7937;48.090;16.212;2023-05-10T16:36:46;1.43;;;1.20;;
15673;SDS011;7937;48.090;16.212;2023-05-10T16:39:48;2.00;;;1.20;;
15673;SDS011;7937;48.090;16.212;2023-05-10T16:42:50;5.30;;;1.30;;
15673;SDS011;7937;48.090;16.212;2023-05-10T16:46:08;1.20;;;1.10;;
15673;SDS011;7937;48.090;16.212;2023-05-10T16:49:11;2.80;;;1.20;;
15673;SDS011;7937;48.090;16.212;2023-05-10T16:52:13;1.50;;;1.20;;
15673;SDS011;7937;48.090;16.212;2023-05-10T16:55:15;2.17;;;1.30;;
15673;SDS011;7937;48.090;16.212;2023-05-10T16:58:18;1.67;;;1.10;;
15673;SDS011;7937;48.090;16.212;2023-05-10T17:01:20;2.17;;;1.10;;
15673;SDS011;7937;48.090;16.212;2023-05-10T17:04:25;2.03;;;1.20;;
15673;SDS011;7937;48.090;16.212;2023-05-10T17:07:27;1.00;;;1.00;;
15673;SDS011;7937;48.090;16.212;2023-05-10T17:10:30;1.00;;;1.00;;
15673;SDS011;7937;48.090;16.212;2023-05-10T17:13:32;1.47;;;1.17;;
15673;SDS011;7937;48.090;16.212;2023-05-10T17:16:34;1.70;;;1.37;;
15673;SDS011;7937;48.090;16.212;2023-05-10T17:19:37;1.40;;;1.30;;
15673;SDS011;7937;48.090;16.212;2023-05-10T17:22:40;3.00;;;1.30;;
15673;SDS011;7937;48.090;16.212;2023-05-10T17:25:42;5.97;;;1.33;;
15673;SDS011;7937;48.090;16.212;2023-05-10T17:28:44;3.40;;;1.20;;
15673;SDS011;7937;48.090;16.212;2023-05-10T17:31:46;1.97;;;1.20;;
15673;SDS011;7937;48.090;16.212;2023-05-10T17:34:48;1.27;;;1.17;;
15673;SDS011;7937;48.090;16.212;2023-05-10T17:37:51;1.20;;;1.10;;
15673;SDS011;7937;48.090;16.212;2023-05-10T17:40:53;2.30;;;1.33;;
15673;SDS011;7937;48.090;16.212;2023-05-10T17:43:55;1.87;;;1.00;;
15673;SDS011;7937;48.090;16.212;2023-05-10T17:46:57;1.87;;;1.27;;
15673;SDS011;7937;48.090;16.212;2023-05-10T17:49:59;1.93;;;1.30;;
15673;SDS011;7937;48.090;16.212;2023-05-10T17:53:02;1.50;;;1.20;;
15673;SDS011;7937;48.090;16.212;2023-05-10T17:56:04;1.40;;;1.23;;
15673;SDS011;7937;48.090;16.212;2023-05-10T17:59:07;2.10;;;1.20;;
15673;SDS011;7937;48.090;16.212;2023-05-10T18:02:09;2.63;;;1.40;;
15673;SDS011;7937;48.090;16.212;2023-05-10T18:05:11;1.93;;;1.50;;
15673;SDS011;7937;48.090;16.212;2023-05-10T18:08:14;2.17;;;1.43;;
15673;SDS011;7937;48.090;16.212;2023-05-10T18:11:23;1.77;;;1.30;;
15673;SDS011;7937;48.090;16.212;2023-05-10T18:14:26;1.47;;;1.30;;
15673;SDS011;7937;48.090;16.212;2023-05-10T18:17:41;1.60;;;1.50;;
15673;SDS011;7937;48.090;16.212;2023-05-10T18:20:43;1.40;;;1.30;;
15673;SDS011;7937;48.090;16.212;2023-05-10T18:23:47;1.47;;;1.37;;
15673;SDS011;7937;48.090;16.212;2023-05-10T18:26:49;3.90;;;1.30;;
15673;SDS011;7937;48.090;16.212;2023-05-10T18:29:51;4.07;;;1.30;;
15673;SDS011;7937;48.090;16.212;2023-05-10T18:32:53;1.20;;;1.10;;
15673;SDS011;7937;48.090;16.212;2023-05-10T18:35:56;1.27;;;1.17;;
15673;SDS011;7937;48.090;16.212;2023-05-10T18:38:58;2.97;;;1.30;;
15673;SDS011;7937;48.090;16.212;2023-05-10T18:42:02;2.23;;;1.50;;
15673;SDS011;7937;48.090;16.212;2023-05-10T18:45:07;1.13;;;1.03;;
15673;SDS011;7937;48.090;16.212;2023-05-10T18:48:09;1.40;;;1.30;;
15673;SDS011;7937;48.090;16.212;2023-05-10T18:51:12;2.13;;;1.33;;